createdAt,value
2019-05-26T00:00:39.803Z,11.50
2019-05-26T00:01:39.819Z,10.70
2019-05-26T00:02:39.805Z,10.30
2019-05-26T00:03:39.773Z,10.00
2019-05-26T00:04:39.771Z,9.70
2019-05-26T00:05:39.759Z,10.60
2019-05-26T00:06:39.754Z,11.70
2019-05-26T00:07:39.743Z,11.70
2019-05-26T00:08:39.722Z,12.50
2019-05-26T00:09:39.712Z,13.40
2019-05-26T00:10:39.702Z,14.80
2019-05-26T00:11:39.704Z,18.30
2019-05-26T00:12:39.673Z,15.90
2019-05-26T00:13:39.692Z,18.40
2019-05-26T00:14:39.661Z,17.20
2019-05-26T00:15:39.661Z,17.60
2019-05-26T00:16:39.652Z,14.90
2019-05-26T00:17:39.651Z,16.10
2019-05-26T00:18:39.631Z,17.70
2019-05-26T00:19:39.611Z,18.10
2019-05-26T00:20:39.609Z,17.40
2019-05-26T00:21:39.610Z,16.90
2019-05-26T00:22:39.581Z,15.30
2019-05-26T00:23:39.570Z,13.00
2019-05-26T00:24:39.562Z,10.60
2019-05-26T00:25:39.557Z,12.90
2019-05-26T00:26:39.560Z,13.90
2019-05-26T00:27:39.540Z,12.60
2019-05-26T00:28:39.519Z,16.50
2019-05-26T00:29:39.524Z,15.10
2019-05-26T00:30:39.500Z,13.00
2019-05-26T00:31:39.509Z,13.80
2019-05-26T00:32:39.480Z,14.30
2019-05-26T00:33:39.469Z,12.80
2019-05-26T00:34:39.470Z,14.00
2019-05-26T00:35:39.463Z,15.30
2019-05-26T00:36:39.458Z,14.50
2019-05-26T00:37:48.958Z,15.90
2019-05-26T00:38:40.418Z,16.60
2019-05-26T00:39:39.413Z,16.60
2019-05-26T00:40:39.401Z,16.00
2019-05-26T00:41:39.388Z,16.50
2019-05-26T00:42:39.388Z,16.30
2019-05-26T00:43:39.388Z,14.50
2019-05-26T00:44:39.358Z,15.30
2019-05-26T00:45:39.378Z,14.70
2019-05-26T00:46:39.337Z,14.60
2019-05-26T00:47:39.347Z,15.20
2019-05-26T00:48:39.319Z,15.70
2019-05-26T00:49:39.310Z,14.40
2019-05-26T00:50:39.297Z,14.50
2019-05-26T00:51:39.302Z,15.20
2019-05-26T00:52:39.296Z,15.10
2019-05-26T00:53:39.267Z,13.90
2019-05-26T00:54:39.256Z,14.30
2019-05-26T00:55:39.247Z,13.50
2019-05-26T00:56:39.236Z,13.90
2019-05-26T00:57:39.257Z,14.60
2019-05-26T00:58:39.238Z,13.30
2019-05-26T00:59:39.216Z,15.30
2019-05-26T01:00:39.206Z,15.50
2019-05-26T01:01:39.208Z,17.20
2019-05-26T01:02:39.197Z,14.10
2019-05-26T01:03:39.165Z,16.30
2019-05-26T01:04:39.155Z,17.00
2019-05-26T01:05:39.152Z,15.80
2019-05-26T01:06:39.135Z,15.60
2019-05-26T01:07:39.208Z,16.10
2019-05-26T01:08:39.115Z,15.60
2019-05-26T01:09:39.106Z,15.60
2019-05-26T01:10:39.094Z,15.90
2019-05-26T01:11:39.083Z,15.40
2019-05-26T01:12:39.104Z,13.70
2019-05-26T01:13:39.073Z,16.70
2019-05-26T01:14:39.054Z,15.60
2019-05-26T01:15:39.048Z,15.20
2019-05-26T01:16:39.044Z,15.70
2019-05-26T01:17:39.045Z,14.90
2019-05-26T01:18:39.022Z,15.00
2019-05-26T01:19:39.021Z,13.70
2019-05-26T01:20:39.001Z,14.20
2019-05-26T01:21:38.997Z,14.60
2019-05-26T01:22:38.987Z,15.50
2019-05-26T01:23:38.962Z,14.00
2019-05-26T01:24:38.954Z,13.50
2019-05-26T01:25:38.942Z,12.60
2019-05-26T01:26:38.923Z,13.50
2019-05-26T01:27:38.926Z,15.10
2019-05-26T01:28:38.921Z,14.60
2019-05-26T01:29:38.911Z,13.50
2019-05-26T01:30:38.995Z,13.20
2019-05-26T01:31:38.882Z,13.60
2019-05-26T01:32:38.886Z,14.50
2019-05-26T01:33:38.875Z,14.80
2019-05-26T01:34:38.852Z,14.70
2019-05-26T01:35:38.842Z,14.30
2019-05-26T01:36:38.832Z,14.80
2019-05-26T01:37:38.843Z,14.40
2019-05-26T01:38:38.819Z,13.60
2019-05-26T01:39:38.800Z,13.30
2019-05-26T01:40:38.796Z,14.30
2019-05-26T01:41:38.772Z,14.40
2019-05-26T01:42:38.784Z,14.10
2019-05-26T01:43:38.759Z,14.80
2019-05-26T01:44:38.751Z,15.30
2019-05-26T01:45:38.751Z,14.70
2019-05-26T01:46:38.734Z,14.70
2019-05-26T01:47:38.742Z,14.00
2019-05-26T01:48:38.711Z,14.50
2019-05-26T01:49:38.699Z,14.10
2019-05-26T01:50:38.689Z,12.50
2019-05-26T01:51:38.680Z,12.90
2019-05-26T01:52:38.702Z,12.30
2019-05-26T01:53:38.659Z,12.90
2019-05-26T01:54:40.926Z,13.60
2019-05-26T01:55:38.639Z,14.50
2019-05-26T01:56:38.619Z,14.20
2019-05-26T01:57:38.620Z,13.00
2019-05-26T01:58:38.625Z,14.50
2019-05-26T01:59:38.599Z,13.60
2019-05-26T02:00:38.588Z,12.90
2019-05-26T02:01:38.579Z,12.60
2019-05-26T02:02:38.578Z,14.30
2019-05-26T02:03:38.571Z,14.10
2019-05-26T02:04:38.538Z,12.90
2019-05-26T02:05:38.530Z,12.90
2019-05-26T02:06:38.518Z,11.70
2019-05-26T02:07:38.512Z,12.20
2019-05-26T02:08:39.857Z,11.80
2019-05-26T02:09:38.498Z,13.00
2019-05-26T02:10:38.490Z,12.60
2019-05-26T02:11:38.476Z,12.90
2019-05-26T02:12:38.468Z,13.00
2019-05-26T02:13:38.468Z,12.10
2019-05-26T02:14:38.459Z,12.40
2019-05-26T02:15:38.442Z,12.70
2019-05-26T02:16:38.427Z,12.90
2019-05-26T02:17:38.433Z,12.90
2019-05-26T02:18:38.444Z,12.60
2019-05-26T02:19:38.408Z,12.70
2019-05-26T02:20:38.400Z,12.20
2019-05-26T02:21:38.379Z,11.50
2019-05-26T02:22:38.366Z,11.70
2019-05-26T02:23:38.366Z,11.70
2019-05-26T02:24:38.346Z,12.60
2019-05-26T02:25:38.346Z,12.10
2019-05-26T02:26:38.327Z,12.60
2019-05-26T02:27:38.326Z,12.50
2019-05-26T02:28:38.315Z,12.30
2019-05-26T02:29:38.296Z,11.80
2019-05-26T02:30:38.292Z,12.10
2019-05-26T02:31:38.290Z,11.70
2019-05-26T02:32:38.335Z,11.80
2019-05-26T02:33:38.268Z,11.70
2019-05-26T02:34:38.246Z,11.50
2019-05-26T02:35:38.246Z,11.40
2019-05-26T02:36:38.231Z,12.20
2019-05-26T02:37:38.215Z,11.70
2019-05-26T02:38:57.362Z,11.20
2019-05-26T02:39:39.217Z,12.60
2019-05-26T02:40:38.204Z,12.30
2019-05-26T02:41:38.174Z,11.90
2019-05-26T02:42:38.171Z,11.80
2019-05-26T02:43:38.164Z,13.60
2019-05-26T02:44:38.147Z,13.00
2019-05-26T02:45:38.170Z,12.60
2019-05-26T02:46:38.126Z,12.10
2019-05-26T02:47:38.118Z,12.70
2019-05-26T02:48:38.136Z,12.30
2019-05-26T02:49:38.096Z,13.10
2019-05-26T02:50:38.085Z,12.80
2019-05-26T02:51:38.077Z,11.90
2019-05-26T02:52:38.073Z,12.50
2019-05-26T02:53:38.054Z,12.60
2019-05-26T02:54:38.100Z,13.50
2019-05-26T02:55:38.034Z,12.50
2019-05-26T02:56:38.038Z,13.60
2019-05-26T02:57:38.032Z,12.90
2019-05-26T02:58:38.014Z,12.70
2019-05-26T02:59:38.025Z,14.20
2019-05-26T03:00:38.002Z,12.90
2019-05-26T03:01:37.985Z,12.00
2019-05-26T03:02:37.972Z,12.30
2019-05-26T03:03:37.981Z,12.60
2019-05-26T03:04:37.981Z,13.50
2019-05-26T03:05:37.951Z,13.30
2019-05-26T03:06:37.931Z,12.80
2019-05-26T03:07:37.951Z,11.80
2019-05-26T03:08:37.922Z,11.60
2019-05-26T03:09:37.911Z,11.30
2019-05-26T03:10:37.915Z,12.20
2019-05-26T03:11:37.897Z,12.40
2019-05-26T03:12:37.891Z,11.90
2019-05-26T03:13:37.861Z,13.20
2019-05-26T03:14:37.870Z,12.90
2019-05-26T03:15:37.854Z,13.50
2019-05-26T03:16:37.839Z,13.40
2019-05-26T03:17:37.821Z,13.00
2019-05-26T03:18:37.819Z,13.40
2019-05-26T03:19:37.818Z,13.50
2019-05-26T03:20:37.790Z,13.80
2019-05-26T03:21:37.782Z,13.00
2019-05-26T03:22:37.779Z,13.20
2019-05-26T03:23:37.767Z,12.60
2019-05-26T03:24:37.768Z,12.90
2019-05-26T03:25:37.738Z,13.40
2019-05-26T03:26:37.738Z,13.20
2019-05-26T03:27:37.730Z,12.90
2019-05-26T03:28:37.719Z,12.70
2019-05-26T03:29:37.728Z,12.10
2019-05-26T03:30:37.702Z,13.10
2019-05-26T03:31:37.701Z,12.60
2019-05-26T03:32:37.696Z,12.20
2019-05-26T03:33:37.671Z,11.30
2019-05-26T03:34:37.658Z,12.80
2019-05-26T03:35:37.676Z,12.90
2019-05-26T03:36:37.646Z,11.80
2019-05-26T03:37:37.638Z,11.50
2019-05-26T03:38:37.622Z,11.70
2019-05-26T03:39:45.300Z,12.00
2019-05-26T03:40:38.622Z,12.20
2019-05-26T03:41:37.596Z,12.60
2019-05-26T03:42:37.577Z,13.20
2019-05-26T03:43:37.565Z,13.90
2019-05-26T03:44:37.567Z,14.20
2019-05-26T03:45:37.566Z,14.70
2019-05-26T03:46:37.536Z,15.80
2019-05-26T03:47:37.592Z,15.90
2019-05-26T03:48:37.525Z,18.00
2019-05-26T03:49:37.518Z,15.00
2019-05-26T03:50:37.524Z,15.20
2019-05-26T03:51:37.495Z,15.20
2019-05-26T03:52:37.491Z,12.30
2019-05-26T03:53:37.465Z,12.10
2019-05-26T03:54:37.468Z,12.80
2019-05-26T03:55:37.465Z,12.80
2019-05-26T03:56:37.445Z,13.90
2019-05-26T03:57:37.435Z,15.20
2019-05-26T03:58:37.419Z,12.50
2019-05-26T03:59:37.407Z,13.40
2019-05-26T04:00:37.414Z,15.50
2019-05-26T04:01:37.385Z,11.90
2019-05-26T04:02:37.373Z,11.80
2019-05-26T04:03:37.383Z,11.60
2019-05-26T04:04:37.355Z,11.70
2019-05-26T04:05:37.365Z,10.80
2019-05-26T04:06:37.354Z,12.40
2019-05-26T04:07:37.324Z,11.90
2019-05-26T04:08:37.313Z,12.10
2019-05-26T04:09:37.304Z,10.50
2019-05-26T04:10:37.321Z,11.00
2019-05-26T04:11:37.290Z,10.40
2019-05-26T04:12:37.391Z,10.10
2019-05-26T04:13:37.308Z,10.40
2019-05-26T04:14:37.263Z,10.10
2019-05-26T04:15:37.263Z,9.40
2019-05-26T04:16:37.231Z,9.40
2019-05-26T04:17:37.245Z,9.60
2019-05-26T04:18:37.216Z,10.20
2019-05-26T04:19:37.209Z,11.30
2019-05-26T04:20:37.221Z,9.00
2019-05-26T04:21:37.189Z,10.40
2019-05-26T04:22:37.182Z,11.20
2019-05-26T04:23:37.174Z,10.60
2019-05-26T04:24:37.161Z,12.00
2019-05-26T04:25:37.166Z,11.50
2019-05-26T04:26:37.141Z,12.50
2019-05-26T04:27:37.146Z,10.70
2019-05-26T04:28:37.131Z,9.80
2019-05-26T04:29:37.121Z,10.00
2019-05-26T04:30:37.145Z,9.80
2019-05-26T04:31:37.091Z,10.90
2019-05-26T04:32:37.091Z,12.20
2019-05-26T04:33:37.078Z,13.70
2019-05-26T04:34:37.070Z,11.20
2019-05-26T04:35:37.059Z,10.70
2019-05-26T04:36:37.050Z,11.20
2019-05-26T04:37:37.038Z,12.10
2019-05-26T04:38:37.027Z,12.60
2019-05-26T04:39:37.018Z,13.20
2019-05-26T04:40:37.009Z,13.60
2019-05-26T04:41:37.017Z,13.50
2019-05-26T04:42:37.030Z,12.50
2019-05-26T04:43:36.989Z,14.30
2019-05-26T04:44:36.981Z,12.60
2019-05-26T04:45:36.957Z,11.60
2019-05-26T04:46:36.972Z,11.70
2019-05-26T04:47:36.939Z,10.60
2019-05-26T04:48:36.927Z,9.80
2019-05-26T04:49:37.844Z,11.20
2019-05-26T04:50:36.907Z,11.60
2019-05-26T04:51:36.908Z,12.00
2019-05-26T04:52:36.876Z,12.00
2019-05-26T04:53:36.887Z,12.10
2019-05-26T04:54:36.857Z,11.80
2019-05-26T04:55:36.856Z,14.60
2019-05-26T04:56:36.873Z,13.50
2019-05-26T04:57:36.834Z,12.90
2019-05-26T04:58:36.816Z,12.20
2019-05-26T04:59:36.816Z,12.90
2019-05-26T05:00:36.819Z,13.50
2019-05-26T05:01:36.806Z,12.20
2019-05-26T05:02:36.786Z,13.00
2019-05-26T05:03:36.776Z,15.50
2019-05-26T05:04:36.766Z,14.10
2019-05-26T05:05:36.754Z,13.20
2019-05-26T05:06:36.755Z,12.00
2019-05-26T05:07:36.734Z,12.20
2019-05-26T05:08:36.728Z,12.40
2019-05-26T05:09:36.725Z,13.70
2019-05-26T05:10:42.268Z,13.50
2019-05-26T05:11:37.714Z,13.00
2019-05-26T05:12:36.695Z,12.30
2019-05-26T05:13:36.683Z,13.10
2019-05-26T05:14:36.664Z,12.80
2019-05-26T05:15:36.663Z,13.60
2019-05-26T05:16:36.664Z,12.40
2019-05-26T05:17:36.645Z,11.70
2019-05-26T05:18:36.631Z,10.90
2019-05-26T05:19:36.613Z,12.00
2019-05-26T05:20:36.615Z,11.60
2019-05-26T05:21:36.614Z,11.30
2019-05-26T05:22:36.597Z,10.90
2019-05-26T05:23:36.581Z,11.40
2019-05-26T05:24:36.572Z,12.20
2019-05-26T05:25:36.562Z,11.40
2019-05-26T05:26:36.562Z,12.10
2019-05-26T05:27:36.541Z,12.50
2019-05-26T05:28:36.532Z,12.10
2019-05-26T05:29:36.521Z,12.90
2019-05-26T05:30:36.514Z,12.40
2019-05-26T05:31:36.521Z,12.70
2019-05-26T05:32:36.494Z,13.30
2019-05-26T05:33:36.490Z,13.20
2019-05-26T05:34:36.474Z,12.50
2019-05-26T05:35:36.476Z,12.90
2019-05-26T05:36:36.491Z,11.90
2019-05-26T05:37:36.440Z,11.90
2019-05-26T05:38:36.435Z,12.30
2019-05-26T05:39:36.432Z,13.00
2019-05-26T05:40:36.410Z,11.40
2019-05-26T05:41:36.409Z,10.90
2019-05-26T05:42:36.413Z,10.70
2019-05-26T05:43:36.388Z,10.60
2019-05-26T05:44:36.380Z,10.70
2019-05-26T05:45:36.369Z,10.20
2019-05-26T05:46:36.365Z,10.10
2019-05-26T05:47:36.358Z,10.80
2019-05-26T05:48:36.339Z,10.10
2019-05-26T05:49:36.323Z,10.90
2019-05-26T05:50:39.099Z,11.70
2019-05-26T05:51:36.311Z,12.10
2019-05-26T05:52:36.308Z,13.10
2019-05-26T05:53:36.288Z,13.00
2019-05-26T05:54:36.280Z,11.30
2019-05-26T05:55:36.281Z,10.00
2019-05-26T05:56:36.248Z,10.00
2019-05-26T05:57:36.261Z,9.50
2019-05-26T05:58:36.238Z,8.20
2019-05-26T05:59:36.233Z,8.60
2019-05-26T06:00:36.222Z,9.20
2019-05-26T06:01:36.198Z,8.90
2019-05-26T06:02:36.210Z,8.80
2019-05-26T06:03:36.191Z,9.20
2019-05-26T06:04:36.177Z,9.60
2019-05-26T06:05:36.166Z,10.20
2019-05-26T06:06:36.167Z,10.80
2019-05-26T06:07:36.159Z,9.30
2019-05-26T06:08:36.143Z,9.10
2019-05-26T06:09:36.132Z,9.30
2019-05-26T06:10:36.119Z,10.40
2019-05-26T06:11:36.106Z,9.30
2019-05-26T06:12:36.136Z,8.90
2019-05-26T06:13:36.084Z,9.20
2019-05-26T06:14:36.078Z,8.60
2019-05-26T06:15:36.066Z,8.80
2019-05-26T06:16:36.057Z,8.40
2019-05-26T06:17:36.058Z,8.00
2019-05-26T06:18:36.026Z,7.60
2019-05-26T06:19:36.017Z,8.10
2019-05-26T06:20:36.016Z,8.30
2019-05-26T06:21:36.003Z,7.80
2019-05-26T06:22:35.994Z,8.30
2019-05-26T06:23:37.062Z,8.60
2019-05-26T06:24:35.974Z,8.40
2019-05-26T06:25:35.958Z,8.20
2019-05-26T06:26:35.953Z,8.30
2019-05-26T06:27:35.948Z,7.90
2019-05-26T06:28:35.932Z,8.50
2019-05-26T06:29:35.991Z,8.00
2019-05-26T06:30:35.904Z,7.70
2019-05-26T06:31:35.937Z,8.40
2019-05-26T06:32:35.892Z,7.50
2019-05-26T06:33:35.896Z,7.40
2019-05-26T06:34:35.864Z,8.20
2019-05-26T06:35:35.853Z,7.30
2019-05-26T06:36:35.843Z,6.40
2019-05-26T06:37:35.832Z,7.30
2019-05-26T06:38:35.831Z,7.50
2019-05-26T06:39:35.811Z,7.50
2019-05-26T06:40:35.794Z,7.10
2019-05-26T06:41:35.783Z,7.30
2019-05-26T06:42:35.772Z,7.30
2019-05-26T06:43:35.783Z,7.60
2019-05-26T06:44:52.043Z,8.20
2019-05-26T06:45:36.743Z,6.80
2019-05-26T06:46:35.732Z,7.90
2019-05-26T06:47:35.721Z,7.50
2019-05-26T06:48:35.711Z,7.90
2019-05-26T06:49:35.714Z,8.10
2019-05-26T06:50:35.692Z,7.00
2019-05-26T06:51:35.705Z,7.30
2019-05-26T06:52:35.670Z,7.40
2019-05-26T06:53:37.464Z,7.60
2019-05-26T06:54:35.640Z,7.40
2019-05-26T06:55:35.641Z,6.90
2019-05-26T06:56:35.621Z,7.40
2019-05-26T06:57:35.612Z,6.90
2019-05-26T06:58:35.610Z,7.30
2019-05-26T06:59:35.582Z,7.90
2019-05-26T07:00:35.570Z,7.20
2019-05-26T07:01:35.568Z,7.00
2019-05-26T07:02:35.562Z,6.80
2019-05-26T07:03:35.550Z,6.60
2019-05-26T07:04:35.530Z,6.30
2019-05-26T07:05:35.523Z,6.80
2019-05-26T07:06:35.510Z,6.60
2019-05-26T07:07:35.497Z,7.00
2019-05-26T07:08:35.501Z,6.70
2019-05-26T07:09:35.478Z,6.90
2019-05-26T07:10:35.459Z,7.00
2019-05-26T07:11:50.172Z,7.60
2019-05-26T07:12:36.443Z,6.80
2019-05-26T07:13:35.450Z,6.70
2019-05-26T07:14:35.428Z,7.30
2019-05-26T07:15:35.408Z,7.00
2019-05-26T07:16:38.349Z,7.00
2019-05-26T07:17:35.439Z,7.20
2019-05-26T07:18:35.388Z,7.30
2019-05-26T07:19:35.368Z,6.60
2019-05-26T07:20:35.358Z,7.00
2019-05-26T07:21:35.339Z,6.30
2019-05-26T07:22:35.327Z,6.30
2019-05-26T07:23:35.329Z,6.90
2019-05-26T07:24:35.307Z,7.10
2019-05-26T07:25:35.299Z,7.30
2019-05-26T07:26:35.287Z,6.70
2019-05-26T07:27:35.278Z,6.70
2019-05-26T07:28:35.285Z,6.70
2019-05-26T07:29:35.255Z,7.60
2019-05-26T07:30:35.247Z,6.60
2019-05-26T07:31:35.251Z,6.70
2019-05-26T07:32:35.226Z,6.90
2019-05-26T07:33:35.226Z,6.80
2019-05-26T07:34:35.196Z,6.90
2019-05-26T07:35:35.194Z,6.90
2019-05-26T07:36:35.175Z,6.50
2019-05-26T07:37:35.175Z,6.50
2019-05-26T07:38:35.176Z,5.90
2019-05-26T07:39:35.146Z,6.50
2019-05-26T07:40:35.136Z,6.00
2019-05-26T07:41:35.126Z,6.20
2019-05-26T07:42:35.106Z,6.40
2019-05-26T07:43:35.117Z,6.10
2019-05-26T07:44:35.107Z,5.80
2019-05-26T07:45:35.083Z,5.60
2019-05-26T07:46:35.065Z,5.60
2019-05-26T07:47:35.075Z,5.70
2019-05-26T07:48:36.182Z,5.30
2019-05-26T07:49:35.026Z,5.30
2019-05-26T07:50:35.014Z,4.90
2019-05-26T07:51:35.008Z,5.50
2019-05-26T07:52:34.997Z,5.40
2019-05-26T07:53:35.004Z,5.20
2019-05-26T07:54:34.976Z,5.40
2019-05-26T07:55:34.965Z,5.20
2019-05-26T07:56:35.074Z,5.10
2019-05-26T07:57:34.944Z,5.10
2019-05-26T07:58:34.923Z,4.90
2019-05-26T07:59:34.936Z,5.10
2019-05-26T08:00:34.894Z,4.80
2019-05-26T08:01:36.468Z,4.30
2019-05-26T08:02:35.463Z,4.40
2019-05-26T08:03:35.224Z,4.30
2019-05-26T08:04:34.863Z,4.50
2019-05-26T08:05:34.906Z,4.60
2019-05-26T08:06:34.955Z,4.30
2019-05-26T08:07:34.823Z,4.40
2019-05-26T08:08:34.813Z,4.10
2019-05-26T08:09:34.816Z,4.50
2019-05-26T08:10:34.792Z,4.30
2019-05-26T08:11:34.773Z,6.10
2019-05-26T08:12:34.767Z,4.50
2019-05-26T08:13:34.751Z,4.80
2019-05-26T08:14:34.753Z,5.30
2019-05-26T08:15:34.732Z,6.20
2019-05-26T08:16:34.712Z,6.30
2019-05-26T08:17:34.703Z,5.60
2019-05-26T08:18:34.692Z,5.00
2019-05-26T08:19:34.711Z,3.90
2019-05-26T08:20:34.671Z,3.90
2019-05-26T08:21:34.671Z,4.10
2019-05-26T08:22:34.641Z,3.90
2019-05-26T08:23:34.641Z,4.10
2019-05-26T08:24:34.649Z,4.30
2019-05-26T08:25:34.601Z,3.70
2019-05-26T08:26:34.608Z,3.70
2019-05-26T08:27:34.591Z,3.90
2019-05-26T08:28:34.571Z,4.20
2019-05-26T08:29:34.573Z,4.00
2019-05-26T08:30:34.559Z,3.80
2019-05-26T08:31:34.541Z,3.90
2019-05-26T08:32:34.544Z,3.90
2019-05-26T08:33:34.510Z,3.70
2019-05-26T08:34:34.535Z,3.70
2019-05-26T08:35:34.503Z,3.70
2019-05-26T08:36:34.482Z,4.00
2019-05-26T08:37:34.549Z,3.50
2019-05-26T08:38:34.450Z,3.80
2019-05-26T08:39:34.491Z,3.40
2019-05-26T08:40:34.428Z,3.70
2019-05-26T08:41:34.436Z,3.40
2019-05-26T08:42:44.209Z,3.80
2019-05-26T08:43:35.410Z,3.70
2019-05-26T08:44:34.407Z,3.40
2019-05-26T08:45:34.370Z,3.70
2019-05-26T08:46:34.349Z,3.40
2019-05-26T08:47:34.349Z,4.10
2019-05-26T08:48:34.338Z,3.50
2019-05-26T08:49:34.349Z,3.20
2019-05-26T08:50:34.610Z,3.10
2019-05-26T08:51:34.289Z,3.20
2019-05-26T08:52:34.289Z,3.40
2019-05-26T08:53:34.289Z,3.50
2019-05-26T08:54:34.268Z,3.50
2019-05-26T08:55:34.238Z,3.30
2019-05-26T08:56:34.229Z,3.00
2019-05-26T08:57:34.218Z,3.30
2019-05-26T08:58:34.227Z,3.40
2019-05-26T08:59:34.199Z,3.10
2019-05-26T09:00:34.201Z,2.70
2019-05-26T09:01:34.170Z,2.90
2019-05-26T09:02:34.156Z,2.60
2019-05-26T09:03:34.137Z,2.80
2019-05-26T09:04:34.138Z,2.60
2019-05-26T09:05:34.137Z,2.50
2019-05-26T09:06:34.099Z,2.40
2019-05-26T09:07:34.109Z,2.20
2019-05-26T09:08:34.077Z,2.20
2019-05-26T09:09:34.069Z,2.90
2019-05-26T09:10:34.067Z,2.30
2019-05-26T09:11:34.057Z,2.60
2019-05-26T09:12:34.030Z,2.70
2019-05-26T09:13:34.017Z,2.70
2019-05-26T09:14:34.067Z,2.90
2019-05-26T09:15:34.095Z,2.70
2019-05-26T09:16:33.995Z,2.60
2019-05-26T09:17:34.029Z,2.80
2019-05-26T09:18:34.016Z,2.10
2019-05-26T09:19:33.954Z,2.30
2019-05-26T09:20:33.946Z,2.50
2019-05-26T09:21:33.928Z,2.70
2019-05-26T09:22:33.898Z,2.60
2019-05-26T09:23:33.897Z,2.30
2019-05-26T09:24:33.890Z,2.70
2019-05-26T09:25:33.877Z,2.30
2019-05-26T09:26:33.865Z,2.30
2019-05-26T09:27:33.845Z,2.10
2019-05-26T09:28:33.836Z,2.10
2019-05-26T09:29:33.817Z,2.20
2019-05-26T09:30:33.829Z,2.10
2019-05-26T09:31:34.357Z,2.10
2019-05-26T09:32:33.787Z,2.10
2019-05-26T09:33:33.775Z,2.10
2019-05-26T09:34:33.756Z,2.30
2019-05-26T09:35:33.775Z,1.90
2019-05-26T09:36:33.746Z,1.90
2019-05-26T09:37:33.734Z,1.80
2019-05-26T09:38:33.725Z,1.90
2019-05-26T09:39:33.707Z,1.80
2019-05-26T09:40:33.706Z,2.00
2019-05-26T09:41:33.690Z,1.80
2019-05-26T09:42:33.674Z,2.00
2019-05-26T09:43:33.665Z,1.90
2019-05-26T09:44:33.645Z,1.90
2019-05-26T09:45:33.647Z,2.00
2019-05-26T09:46:33.627Z,1.80
2019-05-26T09:47:33.616Z,1.70
2019-05-26T09:48:33.595Z,1.90
2019-05-26T09:49:33.594Z,1.70
2019-05-26T09:50:33.605Z,1.90
2019-05-26T09:51:33.967Z,1.90
2019-05-26T09:52:33.555Z,1.80
2019-05-26T09:53:33.544Z,1.80
2019-05-26T09:54:33.534Z,2.00
2019-05-26T09:55:33.535Z,1.80
2019-05-26T09:56:33.516Z,1.80
2019-05-26T09:57:33.502Z,1.60
2019-05-26T09:58:33.488Z,1.90
2019-05-26T09:59:33.474Z,1.90
2019-05-26T10:00:35.387Z,1.70
2019-05-26T10:01:33.453Z,1.70
2019-05-26T10:02:33.444Z,1.90
2019-05-26T10:03:33.586Z,1.80
2019-05-26T10:04:33.415Z,1.80
2019-05-26T10:05:33.424Z,1.80
2019-05-26T10:06:33.398Z,1.80
2019-05-26T10:07:33.386Z,1.70
2019-05-26T10:08:33.374Z,1.80
2019-05-26T10:09:33.364Z,1.60
2019-05-26T10:10:33.384Z,1.50
2019-05-26T10:11:33.344Z,1.80
2019-05-26T10:12:33.335Z,1.60
2019-05-26T10:13:33.344Z,1.90
2019-05-26T10:14:33.304Z,1.70
2019-05-26T10:15:33.296Z,1.70
2019-05-26T10:16:33.303Z,1.70
2019-05-26T10:17:33.278Z,1.70
2019-05-26T10:18:33.264Z,1.60
2019-05-26T10:19:33.244Z,1.60
2019-05-26T10:20:33.234Z,1.80
2019-05-26T10:21:33.244Z,1.50
2019-05-26T10:22:33.215Z,1.60
2019-05-26T10:23:33.206Z,1.50
2019-05-26T10:24:33.194Z,1.60
2019-05-26T10:25:33.187Z,1.60
2019-05-26T10:26:33.183Z,1.60
2019-05-26T10:27:33.153Z,1.50
2019-05-26T10:28:33.154Z,1.70
2019-05-26T10:29:33.134Z,1.60
2019-05-26T10:30:33.141Z,1.40
2019-05-26T10:31:33.124Z,1.70
2019-05-26T10:32:33.103Z,2.10
2019-05-26T10:33:33.093Z,2.00
2019-05-26T10:34:33.084Z,1.80
2019-05-26T10:35:33.072Z,1.70
2019-05-26T10:36:33.073Z,1.40
2019-05-26T10:37:33.042Z,1.30
2019-05-26T10:38:33.036Z,1.60
2019-05-26T10:39:33.023Z,1.70
2019-05-26T10:40:33.013Z,1.70
2019-05-26T10:41:33.015Z,1.60
2019-05-26T10:42:32.993Z,1.60
2019-05-26T10:43:46.343Z,1.60
2019-05-26T10:44:33.963Z,1.50
2019-05-26T10:45:34.452Z,1.80
2019-05-26T10:46:32.965Z,1.60
2019-05-26T10:47:32.956Z,1.90
2019-05-26T10:48:32.923Z,2.00
2019-05-26T10:49:32.913Z,2.20
2019-05-26T10:50:32.903Z,1.70
2019-05-26T10:51:32.903Z,1.60
2019-05-26T10:52:32.880Z,1.60
2019-05-26T10:53:32.873Z,1.60
2019-05-26T10:54:32.863Z,1.50
2019-05-26T10:55:32.853Z,1.40
2019-05-26T10:56:32.852Z,1.50
2019-05-26T10:57:32.836Z,1.50
2019-05-26T10:58:32.813Z,1.50
2019-05-26T10:59:32.803Z,1.50
2019-05-26T11:00:33.322Z,1.70
2019-05-26T11:01:32.900Z,1.60
2019-05-26T11:02:32.773Z,1.60
2019-05-26T11:03:32.763Z,1.50
2019-05-26T11:04:32.761Z,1.50
2019-05-26T11:05:32.742Z,1.40
2019-05-26T11:06:32.744Z,1.40
2019-05-26T11:07:32.732Z,1.40
2019-05-26T11:08:32.703Z,1.40
2019-05-26T11:09:32.702Z,1.50
2019-05-26T11:10:32.683Z,1.40
2019-05-26T11:11:32.682Z,1.30
2019-05-26T11:12:32.662Z,1.50
2019-05-26T11:13:32.652Z,1.30
2019-05-26T11:14:32.633Z,1.40
2019-05-26T11:15:32.631Z,1.40
2019-05-26T11:16:32.623Z,1.50
2019-05-26T11:17:32.616Z,1.40
2019-05-26T11:18:32.595Z,1.40
2019-05-26T11:19:32.583Z,1.50
2019-05-26T11:20:32.572Z,1.50
2019-05-26T11:21:32.560Z,1.60
2019-05-26T11:22:32.591Z,1.60
2019-05-26T11:23:32.542Z,1.60
2019-05-26T11:24:32.522Z,1.40
2019-05-26T11:25:32.511Z,1.50
2019-05-26T11:26:32.506Z,1.30
2019-05-26T11:27:32.502Z,1.30
2019-05-26T11:28:32.482Z,1.30
2019-05-26T11:29:32.471Z,1.30
2019-05-26T11:30:32.461Z,1.40
2019-05-26T11:31:32.451Z,1.50
2019-05-26T11:32:32.451Z,1.60
2019-05-26T11:33:32.431Z,1.50
2019-05-26T11:34:32.421Z,1.50
2019-05-26T11:35:32.429Z,1.70
2019-05-26T11:36:32.391Z,1.60
2019-05-26T11:37:32.406Z,1.60
2019-05-26T11:38:33.740Z,1.80
2019-05-26T11:39:32.363Z,1.50
2019-05-26T11:40:32.424Z,1.50
2019-05-26T11:41:32.343Z,1.60
2019-05-26T11:42:32.341Z,1.30
2019-05-26T11:43:32.311Z,1.50
2019-05-26T11:44:32.310Z,1.60
2019-05-26T11:45:32.292Z,1.60
2019-05-26T11:46:32.282Z,1.50
2019-05-26T11:47:32.283Z,1.60
2019-05-26T11:48:32.262Z,1.50
2019-05-26T11:49:32.255Z,1.50
2019-05-26T11:50:32.242Z,1.40
2019-05-26T11:51:32.259Z,1.40
2019-05-26T11:52:32.234Z,1.40
2019-05-26T11:53:32.214Z,1.60
2019-05-26T11:54:34.472Z,1.50
2019-05-26T11:55:32.186Z,1.30
2019-05-26T11:56:32.171Z,1.60
2019-05-26T11:57:32.171Z,1.50
2019-05-26T11:58:32.151Z,1.50
2019-05-26T11:59:32.143Z,1.50
2019-05-26T12:00:32.142Z,1.40
2019-05-26T12:01:32.128Z,1.40
2019-05-26T12:02:32.121Z,1.40
2019-05-26T12:03:32.101Z,1.60
2019-05-26T12:04:32.089Z,1.50
2019-05-26T12:05:32.076Z,1.50
2019-05-26T12:06:32.061Z,1.50
2019-05-26T12:07:32.071Z,1.70
2019-05-26T12:08:32.088Z,1.70
2019-05-26T12:09:32.031Z,1.40
2019-05-26T12:10:32.021Z,1.50
2019-05-26T12:11:32.011Z,1.50
2019-05-26T12:12:32.011Z,1.50
2019-05-26T12:13:31.981Z,1.80
2019-05-26T12:14:35.244Z,1.80
2019-05-26T12:15:31.961Z,1.60
2019-05-26T12:16:31.954Z,1.50
2019-05-26T12:17:31.951Z,1.50
2019-05-26T12:18:31.934Z,1.70
2019-05-26T12:19:31.923Z,1.50
2019-05-26T12:20:31.911Z,1.50
2019-05-26T12:21:31.901Z,1.60
2019-05-26T12:22:31.900Z,1.50
2019-05-26T12:23:31.879Z,1.60
2019-05-26T12:24:31.861Z,1.50
2019-05-26T12:25:31.851Z,1.50
2019-05-26T12:26:31.841Z,1.60
2019-05-26T12:27:31.845Z,1.70
2019-05-26T12:28:31.820Z,1.60
2019-05-26T12:29:31.809Z,1.50
2019-05-26T12:30:31.800Z,1.70
2019-05-26T12:31:31.781Z,1.60
2019-05-26T12:32:31.809Z,1.70
2019-05-26T12:33:31.763Z,1.80
2019-05-26T12:34:31.751Z,1.60
2019-05-26T12:35:31.743Z,1.50
2019-05-26T12:36:31.731Z,1.40
2019-05-26T12:37:31.720Z,1.60
2019-05-26T12:38:31.722Z,1.80
2019-05-26T12:39:31.700Z,1.70
2019-05-26T12:40:31.689Z,1.50
2019-05-26T12:41:34.023Z,1.80
2019-05-26T12:42:32.660Z,1.60
2019-05-26T12:43:31.673Z,1.50
2019-05-26T12:44:31.654Z,1.60
2019-05-26T12:45:31.630Z,1.50
2019-05-26T12:46:31.627Z,1.50
2019-05-26T12:47:31.614Z,1.60
2019-05-26T12:48:31.611Z,1.60
2019-05-26T12:49:31.593Z,1.60
2019-05-26T12:50:31.581Z,1.70
2019-05-26T12:51:31.562Z,1.60
2019-05-26T12:52:31.552Z,1.70
2019-05-26T12:53:31.560Z,1.60
2019-05-26T12:54:31.530Z,1.60
2019-05-26T12:55:31.523Z,1.60
2019-05-26T12:56:31.511Z,1.90
2019-05-26T12:57:31.511Z,1.60
2019-05-26T12:58:31.500Z,1.40
2019-05-26T12:59:31.481Z,1.60
2019-05-26T13:00:47.592Z,1.70
2019-05-26T13:01:32.458Z,1.80
2019-05-26T13:02:31.441Z,1.60
2019-05-26T13:03:31.470Z,1.80
2019-05-26T13:04:31.419Z,1.70
2019-05-26T13:05:31.413Z,1.60
2019-05-26T13:06:31.400Z,1.80